Time;durP1;ratioP1;P1;durP2;ratioP2;P2;SDS_P1;SDS_P2;PMS_P1;PMS_P2;Temp;Humidity;BMP_temperature;BMP_pressure;BME280_temperature;BME280_humidity;BME280_pressure;Samples;Min_cycle;Max_cycle;Signal;HPM_P1;HPM_P2
2022/06/20 00:01:02;;;;;;;2.50;1.77;;;;;;;;;;4932188;28;20438;-72
2022/06/20 00:03:30;;;;;;;2.95;1.65;;;;;;;;;;4932779;28;20450;-71
2022/06/20 00:05:56;;;;;;;7.18;1.75;;;;;;;;;;4914787;28;20046;-71
2022/06/20 00:08:22;;;;;;;2.72;1.65;;;;;;;;;;4932692;28;20516;-72
2022/06/20 00:10:48;;;;;;;3.55;1.77;;;;;;;;;;4914230;28;20450;-71
2022/06/20 00:13:27;;;;;;;3.83;2.55;;;;;;;;;;4914551;28;20504;-71
2022/06/20 00:15:53;;;;;;;;;;;;;;;;;;4915302;28;20389;-72
2022/06/20 00:18:19;;;;;;;1.83;1.65;;;;;;;;;;4932598;28;20284;-71
2022/06/20 00:20:44;;;;;;;2.22;1.58;;;;;;;;;;4932162;28;20361;-71
2022/06/20 00:23:10;;;;;;;2.90;1.70;;;;;;;;;;4914323;28;20401;-72
2022/06/20 00:25:36;;;;;;;2.95;1.65;;;;;;;;;;4933035;28;20457;-71
2022/06/20 00:28:03;;;;;;;2.72;1.95;;;;;;;;;;4950505;28;20337;-71
2022/06/20 00:30:28;;;;;;;2.05;1.40;;;;;;;;;;4933915;28;20384;-72
2022/06/20 00:32:54;;;;;;;5.25;1.95;;;;;;;;;;4933781;28;20410;-71
2022/06/20 00:35:20;;;;;;;2.22;1.65;;;;;;;;;;4952077;28;20373;-71
2022/06/20 00:37:46;;;;;;;3.70;1.95;;;;;;;;;;4950795;28;20476;-71
2022/06/20 00:40:20;;;;;;;2.35;1.33;;;;;;;;;;4950245;28;20365;-72
2022/06/20 00:42:46;;;;;;;3.65;1.85;;;;;;;;;;4933276;28;20080;-71
2022/06/20 00:45:12;;;;;;;5.28;2.58;;;;;;;;;;4934065;28;20030;-72
2022/06/20 00:47:38;;;;;;;4.03;1.80;;;;;;;;;;4933221;28;20119;-71
2022/06/20 00:50:22;;;;;;;4.60;1.58;;;;;;;;;;4966236;28;20313;-73
2022/06/20 00:52:58;;;;;;;4.35;1.90;;;;;;;;;;4950901;28;20034;-72
2022/06/20 00:55:31;;;;;;;3.33;1.75;;;;;;;;;;4951124;28;20364;-71
2022/06/20 00:58:04;;;;;;;2.92;1.83;;;;;;;;;;4933008;28;20026;-71
2022/06/20 01:00:33;;;;;;;5.05;2.05;;;;;;;;;;4968984;28;20488;-71
2022/06/20 01:03:18;;;;;;;4.93;2.03;;;;;;;;;;4943777;28;20352;-72
2022/06/20 01:05:49;;;;;;;5.80;2.78;;;;;;;;;;4952153;28;20459;-72
2022/06/20 01:08:19;;;;;;;4.53;1.95;;;;;;;;;;4970032;28;20318;-71
2022/06/20 01:10:51;;;;;;;3.13;2.03;;;;;;;;;;4984850;28;20325;-71
2022/06/20 01:13:20;;;;;;;2.58;2.03;;;;;;;;;;4951940;28;20306;-71
2022/06/20 01:15:46;;;;;;;4.28;2.58;;;;;;;;;;4969965;28;20409;-71
2022/06/20 01:18:23;;;;;;;7.13;2.13;;;;;;;;;;4952031;28;20409;-71
2022/06/20 01:20:50;;;;;;;3.90;2.20;;;;;;;;;;4984761;28;20487;-71
2022/06/20 01:23:25;;;;;;;3.55;2.38;;;;;;;;;;4969799;28;20432;-72
2022/06/20 01:26:05;;;;;;;3.80;2.08;;;;;;;;;;4969105;28;20542;-72
2022/06/20 01:28:43;;;;;;;2.72;2.00;;;;;;;;;;4970286;28;20044;-72
2022/06/20 01:31:09;;;;;;;3.45;2.05;;;;;;;;;;4970033;28;20423;-71
2022/06/20 01:33:35;;;;;;;3.60;1.98;;;;;;;;;;4969665;28;20376;-72
2022/06/20 01:38:45;;;;;;;3.40;2.03;;;;;;;;;;4969165;28;20439;-71
2022/06/20 01:43:58;;;;;;;3.97;2.10;;;;;;;;;;4970881;28;20104;-71
2022/06/20 01:46:29;;;;;;;5.28;2.20;;;;;;;;;;4969562;28;20421;-72
2022/06/20 01:48:59;;;;;;;6.22;2.33;;;;;;;;;;4983824;28;20364;-71
2022/06/20 01:51:28;;;;;;;5.15;1.95;;;;;;;;;;4969275;28;20043;-72
2022/06/20 01:53:55;;;;;;;4.95;2.00;;;;;;;;;;4969185;28;20433;-71
2022/06/20 01:56:22;;;;;;;4.60;2.08;;;;;;;;;;4970113;28;20440;-72
2022/06/20 01:58:59;;;;;;;3.17;2.00;;;;;;;;;;4968170;28;20349;-71
2022/06/20 02:01:26;;;;;;;6.75;2.05;;;;;;;;;;4951226;28;20447;-72
2022/06/20 02:03:51;;;;;;;8.88;2.92;;;;;;;;;;4969304;28;20324;-72
2022/06/20 02:06:18;;;;;;;5.63;2.25;;;;;;;;;;4967537;28;20449;-72
2022/06/20 02:08:48;;;;;;;3.08;2.65;;;;;;;;;;4945956;28;20550;-72
2022/06/20 02:11:24;;;;;;;2.45;1.83;;;;;;;;;;4952529;28;20034;-72
2022/06/20 02:13:56;;;;;;;3.78;1.90;;;;;;;;;;4969206;28;20498;-72
2022/06/20 02:16:22;;;;;;;3.97;2.38;;;;;;;;;;4985114;28;20452;-72
2022/06/20 02:18:49;;;;;;;4.07;2.00;;;;;;;;;;4984109;28;20348;-73
2022/06/20 02:21:20;;;;;;;8.45;2.60;;;;;;;;;;4983749;28;20475;-72
2022/06/20 02:23:48;;;;;;;7.13;2.03;;;;;;;;;;4968661;28;20456;-71
2022/06/20 02:26:14;;;;;;;5.17;2.57;;;;;;;;;;4951461;28;20026;-74
2022/06/20 02:28:53;;;;;;;7.95;2.58;;;;;;;;;;4984211;28;20314;-72
2022/06/20 02:31:18;;;;;;;;;;;;;;;;;;4936375;28;20372;-73
2022/06/20 02:33:46;;;;;;;8.73;2.20;;;;;;;;;;4968959;28;20282;-71
2022/06/20 02:36:11;;;;;;;7.72;2.45;;;;;;;;;;4983885;28;20041;-72
2022/06/20 02:38:37;;;;;;;6.30;2.55;;;;;;;;;;4968978;28;20049;-72
2022/06/20 02:41:02;;;;;;;3.30;2.15;;;;;;;;;;4969141;28;20459;-72
2022/06/20 02:43:49;;;;;;;3.97;2.08;;;;;;;;;;4983572;28;20656;-72
2022/06/20 02:46:18;;;;;;;3.45;2.15;;;;;;;;;;4951350;28;20459;-72
2022/06/20 02:48:45;;;;;;;6.78;3.13;;;;;;;;;;4952360;28;20433;-72
2022/06/20 02:51:15;;;;;;;4.03;2.03;;;;;;;;;;4969066;28;20507;-72
2022/06/20 02:53:50;;;;;;;7.07;2.40;;;;;;;;;;4988227;28;20380;-72
2022/06/20 02:56:18;;;;;;;3.15;2.47;;;;;;;;;;4972541;28;20439;-72
2022/06/20 02:58:47;;;;;;;5.78;2.85;;;;;;;;;;4987277;28;20447;-72
2022/06/20 03:01:36;;;;;;;6.18;2.42;;;;;;;;;;4970877;28;20329;-72
2022/06/20 03:04:01;;;;;;;;;;;;;;;;;;4987663;28;20419;-72
2022/06/20 03:06:43;;;;;;;7.50;2.83;;;;;;;;;;4954471;28;20362;-73
2022/06/20 03:09:11;;;;;;;3.05;2.05;;;;;;;;;;4986946;28;20511;-72
2022/06/20 03:11:37;;;;;;;;;;;;;;;;;;4954959;28;20387;-72
2022/06/20 03:14:05;;;;;;;5.10;2.47;;;;;;;;;;4972176;28;20247;-72
2022/06/20 03:16:31;;;;;;;6.13;2.40;;;;;;;;;;4954224;28;20328;-72
2022/06/20 03:18:58;;;;;;;6.32;2.40;;;;;;;;;;4970615;28;20381;-72
2022/06/20 03:21:25;;;;;;;4.35;2.45;;;;;;;;;;4987246;28;20104;-71
2022/06/20 03:23:51;;;;;;;3.63;2.35;;;;;;;;;;4982175;28;20484;-72
2022/06/20 03:26:19;;;;;;;4.63;2.22;;;;;;;;;;4934289;28;20446;-72
2022/06/20 03:28:45;;;;;;;6.43;2.50;;;;;;;;;;4918731;28;20341;-72
2022/06/20 03:31:10;;;;;;;8.93;2.40;;;;;;;;;;4934877;28;20022;-71
2022/06/20 03:33:36;;;;;;;4.57;2.30;;;;;;;;;;4936729;28;20045;-71
2022/06/20 03:36:09;;;;;;;4.03;2.53;;;;;;;;;;4952290;28;20416;-72
2022/06/20 03:38:36;;;;;;;8.65;3.03;;;;;;;;;;4932455;28;20540;-71
2022/06/20 03:41:05;;;;;;;3.92;2.15;;;;;;;;;;4934359;28;20034;-72
2022/06/20 03:43:30;;;;;;;;;;;;;;;;;;4952500;28;20033;-71
2022/06/20 03:45:59;;;;;;;3.80;2.65;;;;;;;;;;4935049;28;20327;-71
2022/06/20 03:48:41;;;;;;;;;;;;;;;;;;4952819;28;20394;-71
2022/06/20 03:51:37;;;;;;;6.55;2.80;;;;;;;;;;4934016;28;20325;-72
2022/06/20 03:54:08;;;;;;;5.13;2.53;;;;;;;;;;4923256;28;20402;-72
2022/06/20 03:56:51;;;;;;;5.15;2.65;;;;;;;;;;4934020;28;20341;-71
2022/06/20 03:59:24;;;;;;;4.10;2.25;;;;;;;;;;4934314;28;20353;-71
2022/06/20 04:01:56;;;;;;;4.38;2.38;;;;;;;;;;4934059;28;20360;-72
2022/06/20 04:04:27;;;;;;;2.92;2.15;;;;;;;;;;4934191;28;20389;-71
2022/06/20 04:06:57;;;;;;;7.10;2.65;;;;;;;;;;4934070;28;20475;-71
2022/06/20 04:12:57;;;;;;;5.68;2.25;;;;;;;;;;4949973;28;20373;-71
2022/06/20 04:15:37;;;;;;;4.25;2.42;;;;;;;;;;4934010;28;20326;-71
2022/06/20 04:18:29;;;;;;;3.45;2.58;;;;;;;;;;4933705;28;20368;-72
2022/06/20 04:21:13;;;;;;;9.30;2.75;;;;;;;;;;4934336;28;20449;-72
2022/06/20 04:23:53;;;;;;;6.22;2.63;;;;;;;;;;4954409;28;21109;-72
2022/06/20 04:26:20;;;;;;;3.38;2.50;;;;;;;;;;4953410;28;20095;-71
2022/06/20 04:29:10;;;;;;;5.22;2.92;;;;;;;;;;4953684;28;20357;-71
2022/06/20 04:32:26;;;;;;;3.63;2.67;;;;;;;;;;4953101;28;20440;-71
2022/06/20 04:35:16;;;;;;;8.13;2.30;;;;;;;;;;4947630;28;20474;-71
2022/06/20 04:37:46;;;;;;;5.80;2.13;;;;;;;;;;4970810;28;20470;-72
2022/06/20 04:40:22;;;;;;;7.10;2.45;;;;;;;;;;4952571;28;20392;-71
2022/06/20 04:43:02;;;;;;;5.75;2.88;;;;;;;;;;4952211;28;20392;-71
2022/06/20 04:45:59;;;;;;;4.80;2.33;;;;;;;;;;4952847;28;20088;-72
2022/06/20 04:48:25;;;;;;;6.38;2.53;;;;;;;;;;4951931;28;20046;-71
2022/06/20 04:51:02;;;;;;;11.13;2.67;;;;;;;;;;4952537;28;20384;-71
2022/06/20 04:53:33;;;;;;;3.47;2.50;;;;;;;;;;4970125;28;20379;-71
2022/06/20 04:56:02;;;;;;;3.63;2.80;;;;;;;;;;4970523;28;20479;-72
2022/06/20 04:58:42;;;;;;;9.57;2.83;;;;;;;;;;4970138;28;20324;-71
2022/06/20 05:01:08;;;;;;;5.75;2.97;;;;;;;;;;4969958;28;20433;-71
2022/06/20 05:03:40;;;;;;;3.40;2.53;;;;;;;;;;4970209;28;20476;-71
2022/06/20 05:06:06;;;;;;;4.05;2.50;;;;;;;;;;4952636;28;20429;-71
2022/06/20 05:08:34;;;;;;;3.17;2.30;;;;;;;;;;4952369;28;20048;-71
2022/06/20 05:11:18;;;;;;;3.22;2.20;;;;;;;;;;4969710;28;20317;-71
2022/06/20 05:14:22;;;;;;;3.45;2.40;;;;;;;;;;4952255;28;20465;-71
2022/06/20 05:16:50;;;;;;;5.38;2.25;;;;;;;;;;4935822;28;20419;-71
2022/06/20 05:19:21;;;;;;;4.78;2.50;;;;;;;;;;4952465;28;20538;-70
2022/06/20 05:21:50;;;;;;;3.70;2.13;;;;;;;;;;4952421;28;20446;-70
2022/06/20 05:24:18;;;;;;;5.97;2.13;;;;;;;;;;4944221;28;20354;-71
2022/06/20 05:26:46;;;;;;;4.63;2.35;;;;;;;;;;4932093;28;20017;-71
2022/06/20 05:29:16;;;;;;;3.67;2.28;;;;;;;;;;4932554;28;20030;-71
2022/06/20 05:31:44;;;;;;;4.82;2.15;;;;;;;;;;4949775;28;20358;-70
2022/06/20 05:34:09;;;;;;;5.82;2.25;;;;;;;;;;4932735;28;20342;-71
2022/06/20 05:37:03;;;;;;;4.25;2.40;;;;;;;;;;4950582;28;20326;-72
2022/06/20 05:39:37;;;;;;;3.83;2.13;;;;;;;;;;4949694;28;20389;-71
2022/06/20 05:42:04;;;;;;;3.10;2.30;;;;;;;;;;4950247;28;20433;-70
2022/06/20 05:44:29;;;;;;;11.05;2.42;;;;;;;;;;4932139;28;20315;-71
2022/06/20 05:47:05;;;;;;;3.63;2.05;;;;;;;;;;4950406;28;20371;-71
2022/06/20 05:49:35;;;;;;;7.15;2.53;;;;;;;;;;4932686;28;20448;-71
2022/06/20 05:52:02;;;;;;;2.47;1.75;;;;;;;;;;4932241;28;20468;-71
2022/06/20 05:54:35;;;;;;;6.95;2.45;;;;;;;;;;4932666;28;20421;-70
2022/06/20 05:57:07;;;;;;;3.88;2.67;;;;;;;;;;4932089;28;20061;-71
2022/06/20 05:59:42;;;;;;;5.47;2.40;;;;;;;;;;4932027;28;20445;-70
2022/06/20 06:02:20;;;;;;;11.50;2.40;;;;;;;;;;4932037;28;20409;-70
2022/06/20 06:04:52;;;;;;;3.08;1.70;;;;;;;;;;4931717;28;20346;-71
2022/06/20 06:07:25;;;;;;;3.00;2.10;;;;;;;;;;4951051;28;20850;-70
2022/06/20 06:09:57;;;;;;;4.03;2.10;;;;;;;;;;4932079;28;20043;-70
2022/06/20 06:12:31;;;;;;;3.05;2.30;;;;;;;;;;4932016;28;20097;-71
2022/06/20 06:15:17;;;;;;;3.80;2.33;;;;;;;;;;4932072;28;20437;-70
2022/06/20 06:17:51;;;;;;;7.45;2.15;;;;;;;;;;4931916;28;20418;-71
2022/06/20 06:20:25;;;;;;;3.38;2.80;;;;;;;;;;4932032;28;20365;-71
2022/06/20 06:22:57;;;;;;;3.35;2.30;;;;;;;;;;4949726;28;20479;-71
2022/06/20 06:25:29;;;;;;;3.25;1.92;;;;;;;;;;4948304;28;20068;-70
2022/06/20 06:28:00;;;;;;;2.80;2.10;;;;;;;;;;4972723;28;20026;-71
2022/06/20 06:30:28;;;;;;;2.55;1.83;;;;;;;;;;4973468;28;20072;-70
2022/06/20 06:33:01;;;;;;;3.85;1.95;;;;;;;;;;4987635;28;20022;-71
2022/06/20 06:35:34;;;;;;;5.78;2.28;;;;;;;;;;4973790;28;20367;-70
2022/06/20 06:38:04;;;;;;;3.58;2.25;;;;;;;;;;4954874;28;20476;-70
2022/06/20 06:40:34;;;;;;;3.88;2.55;;;;;;;;;;4974327;28;20425;-71
2022/06/20 06:43:02;;;;;;;3.30;1.90;;;;;;;;;;4954960;28;20488;-70
2022/06/20 06:45:30;;;;;;;2.78;1.73;;;;;;;;;;4972807;28;20425;-70
2022/06/20 06:48:14;;;;;;;5.05;2.00;;;;;;;;;;4972839;28;20370;-71
2022/06/20 06:50:54;;;;;;;4.80;1.75;;;;;;;;;;4987572;28;20438;-70
2022/06/20 06:53:42;;;;;;;2.92;1.98;;;;;;;;;;4988469;28;20108;-70
2022/06/20 06:56:31;;;;;;;4.25;1.77;;;;;;;;;;4987641;28;20048;-70
2022/06/20 06:59:04;;;;;;;3.20;1.75;;;;;;;;;;4987653;28;20388;-70
2022/06/20 07:01:50;;;;;;;3.78;1.95;;;;;;;;;;4971590;28;20336;-70
2022/06/20 07:04:22;;;;;;;2.75;1.80;;;;;;;;;;4955232;28;20025;-70
2022/06/20 07:06:51;;;;;;;4.80;1.98;;;;;;;;;;4971981;28;20424;-70
2022/06/20 07:09:24;;;;;;;4.32;1.80;;;;;;;;;;4954694;28;20077;-69
2022/06/20 07:11:56;;;;;;;4.78;2.42;;;;;;;;;;4972011;28;20367;-70
2022/06/20 07:14:23;;;;;;;2.65;1.95;;;;;;;;;;4971926;28;20453;-71
2022/06/20 07:16:52;;;;;;;3.75;2.08;;;;;;;;;;4970512;28;20128;-70
2022/06/20 07:19:18;;;;;;;6.85;1.88;;;;;;;;;;4972719;28;20383;-70
2022/06/20 07:21:44;;;;;;;6.80;2.28;;;;;;;;;;4972457;28;20521;-69
2022/06/20 07:24:18;;;;;;;4.82;1.67;;;;;;;;;;4971221;28;20510;-70
2022/06/20 07:26:58;;;;;;;3.10;1.75;;;;;;;;;;4953720;28;20325;-70
2022/06/20 07:29:31;;;;;;;2.88;1.70;;;;;;;;;;4970281;28;20049;-70
2022/06/20 07:32:00;;;;;;;3.47;2.13;;;;;;;;;;4952219;28;20340;-69
2022/06/20 07:34:31;;;;;;;3.30;2.10;;;;;;;;;;4952975;28;20494;-69
2022/06/20 07:37:04;;;;;;;3.15;1.98;;;;;;;;;;4971014;28;20340;-70
2022/06/20 07:39:43;;;;;;;3.42;2.20;;;;;;;;;;4953597;28;20052;-70
2022/06/20 07:42:26;;;;;;;2.40;2.05;;;;;;;;;;4952828;28;20439;-69
2022/06/20 07:44:56;;;;;;;4.63;1.95;;;;;;;;;;4952707;28;20034;-69
2022/06/20 07:47:26;;;;;;;2.80;1.73;;;;;;;;;;4952889;28;20317;-69
2022/06/20 07:49:55;;;;;;;2.88;1.60;;;;;;;;;;4970511;28;20440;-70
2022/06/20 07:52:44;;;;;;;3.95;1.88;;;;;;;;;;4970414;28;20535;-70
2022/06/20 07:55:14;;;;;;;3.13;1.95;;;;;;;;;;4970463;28;20087;-69
2022/06/20 07:57:44;;;;;;;5.18;1.63;;;;;;;;;;4952514;28;20413;-70
2022/06/20 08:00:19;;;;;;;4.03;1.63;;;;;;;;;;4952308;28;20419;-69
2022/06/20 08:02:49;;;;;;;4.38;2.00;;;;;;;;;;4952464;28;20467;-70
2022/06/20 08:05:21;;;;;;;5.68;1.80;;;;;;;;;;4952777;28;20426;-69
2022/06/20 08:07:59;;;;;;;4.10;2.20;;;;;;;;;;4952256;28;20019;-70
2022/06/20 08:10:35;;;;;;;6.15;1.90;;;;;;;;;;4952316;28;20501;-69
2022/06/20 08:13:10;;;;;;;6.40;2.00;;;;;;;;;;4953107;28;20476;-69
2022/06/20 08:15:44;;;;;;;3.80;1.90;;;;;;;;;;4952567;28;20453;-70
2022/06/20 08:18:10;;;;;;;4.13;1.95;;;;;;;;;;4970128;28;20033;-70
2022/06/20 08:20:40;;;;;;;5.18;2.03;;;;;;;;;;4952450;28;20490;-69
2022/06/20 08:26:08;;;;;;;5.28;1.85;;;;;;;;;;5066265;27;20643;-67
2022/06/20 08:28:49;;;;;;;5.50;2.00;;;;;;;;;;5066319;28;20035;-67
2022/06/20 08:31:31;;;;;;;10.40;2.42;;;;;;;;;;5047946;28;20432;-67
2022/06/20 08:34:03;;;;;;;3.28;1.95;;;;;;;;;;5048287;28;20461;-68
2022/06/20 08:36:38;;;;;;;6.63;1.95;;;;;;;;;;5066927;28;20421;-68
2022/06/20 08:39:19;;;;;;;2.97;1.83;;;;;;;;;;5048061;28;20350;-68
2022/06/20 08:42:01;;;;;;;3.03;1.80;;;;;;;;;;5066244;28;20366;-67
2022/06/20 08:44:37;;;;;;;3.38;1.80;;;;;;;;;;5030832;28;20528;-67
2022/06/20 08:47:06;;;;;;;4.85;1.80;;;;;;;;;;5047911;28;20434;-68
2022/06/20 08:49:35;;;;;;;2.30;1.73;;;;;;;;;;5065966;28;20348;-67
2022/06/20 08:52:34;;;;;;;7.15;1.90;;;;;;;;;;5068023;28;20437;-69
2022/06/20 08:55:12;;;;;;;5.10;1.80;;;;;;;;;;5067324;28;20469;-67
2022/06/20 08:58:35;;;;;;;3.55;1.92;;;;;;;;;;5065974;28;20417;-68
2022/06/20 09:01:07;;;;;;;2.50;1.63;;;;;;;;;;5002736;28;20585;-67
2022/06/20 09:04:07;;;;;;;4.10;1.90;;;;;;;;;;5002580;28;20536;-67
2022/06/20 09:06:54;;;;;;;6.30;1.88;;;;;;;;;;5003183;27;20476;-68
2022/06/20 09:09:30;;;;;;;3.53;2.03;;;;;;;;;;5005094;28;20051;-67
2022/06/20 09:12:02;;;;;;;3.38;1.85;;;;;;;;;;5003808;28;20313;-68
2022/06/20 09:15:08;;;;;;;6.43;2.40;;;;;;;;;;5006310;28;20335;-67
2022/06/20 09:17:54;;;;;;;3.05;2.10;;;;;;;;;;4984957;28;20108;-68
2022/06/20 09:20:42;;;;;;;4.53;1.95;;;;;;;;;;5004902;28;20354;-68
2022/06/20 09:23:11;;;;;;;4.75;1.95;;;;;;;;;;5005297;28;20451;-67
2022/06/20 09:25:56;;;;;;;2.22;1.50;;;;;;;;;;5002384;28;20483;-68
2022/06/20 09:28:52;;;;;;;2.53;1.50;;;;;;;;;;5004780;28;20047;-67
2022/06/20 09:31:39;;;;;;;2.85;1.58;;;;;;;;;;5004618;28;20508;-67
2022/06/20 09:34:28;;;;;;;2.70;1.60;;;;;;;;;;5002515;28;20399;-67
2022/06/20 09:37:10;;;;;;;3.35;1.90;;;;;;;;;;4994462;28;20332;-68
2022/06/20 09:39:54;;;;;;;1.98;1.45;;;;;;;;;;4991505;28;20379;-67
2022/06/20 09:42:37;;;;;;;4.20;2.15;;;;;;;;;;4991696;28;20332;-67
2022/06/20 09:45:20;;;;;;;4.63;2.00;;;;;;;;;;5006232;28;20463;-68
2022/06/20 09:48:01;;;;;;;2.95;1.88;;;;;;;;;;4991890;28;20459;-68
2022/06/20 09:50:32;;;;;;;1.95;1.52;;;;;;;;;;4991214;28;20051;-68
2022/06/20 09:53:25;;;;;;;3.17;1.80;;;;;;;;;;4973514;28;20390;-68
2022/06/20 09:56:28;;;;;;;4.25;1.92;;;;;;;;;;4989550;28;20439;-70
2022/06/20 09:59:29;;;;;;;4.22;1.25;;;;;;;;;;4989661;28;20352;-69
2022/06/20 10:01:59;;;;;;;2.38;1.85;;;;;;;;;;4958685;28;20448;-68
2022/06/20 10:04:30;;;;;;;3.33;1.65;;;;;;;;;;4989231;28;20348;-69
2022/06/20 10:07:09;;;;;;;2.08;1.30;;;;;;;;;;4991304;28;20363;-70
2022/06/20 10:09:40;;;;;;;6.63;1.95;;;;;;;;;;4989844;28;20458;-69
2022/06/20 10:12:15;;;;;;;2.42;1.40;;;;;;;;;;4990947;28;20443;-69
2022/06/20 10:15:02;;;;;;;10.13;1.85;;;;;;;;;;4991257;28;20367;-70
2022/06/20 10:17:42;;;;;;;3.08;1.50;;;;;;;;;;4990496;28;20519;-69
2022/06/20 10:20:28;;;;;;;3.35;1.70;;;;;;;;;;4990598;28;20393;-69
2022/06/20 10:23:21;;;;;;;3.45;1.65;;;;;;;;;;4990550;28;20033;-69
2022/06/20 10:26:18;;;;;;;2.38;1.58;;;;;;;;;;4990334;28;20504;-71
2022/06/20 10:28:49;;;;;;;3.45;1.20;;;;;;;;;;4989344;28;20348;-69
2022/06/20 10:31:33;;;;;;;3.30;1.52;;;;;;;;;;4989142;28;20428;-70
2022/06/20 10:34:41;;;;;;;4.13;1.50;;;;;;;;;;4990077;28;20094;-69
2022/06/20 10:37:15;;;;;;;;;;;;;;;;;;4985507;28;20371;-69
2022/06/20 10:39:49;;;;;;;3.47;1.38;;;;;;;;;;4989091;28;20013;-69
2022/06/20 10:42:33;;;;;;;2.40;1.58;;;;;;;;;;4990448;28;20336;-69
2022/06/20 10:45:31;;;;;;;4.50;1.63;;;;;;;;;;4990450;28;20325;-70
2022/06/20 10:48:11;;;;;;;4.13;2.23;;;;;;;;;;4988974;28;20450;-67
2022/06/20 10:50:43;;;;;;;2.58;1.30;;;;;;;;;;4991132;28;20344;-68
2022/06/20 10:53:30;;;;;;;5.15;2.20;;;;;;;;;;4988827;28;20801;-67
2022/06/20 10:55:59;;;;;;;2.10;1.45;;;;;;;;;;4988480;28;20436;-67
2022/06/20 10:58:24;;;;;;;;;;;;;;;;;;4989183;28;20439;-67
2022/06/20 11:00:59;;;;;;;3.00;1.90;;;;;;;;;;4990124;28;20304;-68
2022/06/20 11:03:50;;;;;;;2.13;1.50;;;;;;;;;;4988816;28;20442;-68
2022/06/20 11:06:53;;;;;;;3.58;1.80;;;;;;;;;;4990112;28;20443;-68
2022/06/20 11:09:25;;;;;;;4.60;1.70;;;;;;;;;;4966766;28;20507;-68
2022/06/20 11:12:05;;;;;;;3.03;1.08;;;;;;;;;;4989922;28;20459;-68
2022/06/20 11:14:41;;;;;;;2.50;1.58;;;;;;;;;;4991360;28;20420;-68
2022/06/20 11:17:38;;;;;;;3.03;1.52;;;;;;;;;;4988017;28;20333;-69
2022/06/20 11:20:19;;;;;;;3.38;1.17;;;;;;;;;;4974931;28;20472;-68
2022/06/20 11:22:50;;;;;;;3.17;1.50;;;;;;;;;;4988214;28;20462;-69
2022/06/20 11:25:28;;;;;;;6.15;1.30;;;;;;;;;;4987396;28;20471;-68
2022/06/20 11:28:09;;;;;;;2.15;1.27;;;;;;;;;;4989578;28;20459;-68
2022/06/20 11:30:46;;;;;;;6.90;1.50;;;;;;;;;;4989476;28;20402;-68
2022/06/20 11:33:18;;;;;;;1.58;1.27;;;;;;;;;;4988385;28;20436;-67
2022/06/20 11:35:49;;;;;;;5.30;1.65;;;;;;;;;;4989151;28;20518;-70
2022/06/20 11:38:45;;;;;;;4.63;1.30;;;;;;;;;;4989082;28;20115;-67
2022/06/20 11:41:15;;;;;;;8.70;1.67;;;;;;;;;;4989512;28;20394;-67
2022/06/20 11:44:06;;;;;;;3.13;1.63;;;;;;;;;;5004796;28;20376;-67
2022/06/20 11:47:09;;;;;;;2.70;1.30;;;;;;;;;;4989442;28;20414;-67
2022/06/20 11:49:52;;;;;;;3.22;1.52;;;;;;;;;;4988031;28;20322;-68
2022/06/20 11:52:56;;;;;;;2.25;1.38;;;;;;;;;;4989874;28;20032;-67
2022/06/20 11:55:31;;;;;;;1.92;1.50;;;;;;;;;;4990739;28;20440;-67
2022/06/20 11:58:03;;;;;;;4.10;1.60;;;;;;;;;;4987681;28;20442;-67
2022/06/20 12:00:36;;;;;;;5.03;1.48;;;;;;;;;;4986945;28;20351;-67
2022/06/20 12:03:17;;;;;;;2.42;1.45;;;;;;;;;;4988093;28;20500;-68
2022/06/20 12:05:58;;;;;;;6.63;2.03;;;;;;;;;;4988604;28;20325;-67
2022/06/20 12:08:46;;;;;;;4.55;2.22;;;;;;;;;;4987888;28;20482;-69
2022/06/20 12:11:30;;;;;;;2.50;1.83;;;;;;;;;;4987988;28;20460;-68
2022/06/20 12:14:04;;;;;;;7.30;2.08;;;;;;;;;;4988679;28;20313;-69
2022/06/20 12:16:40;;;;;;;6.63;1.88;;;;;;;;;;4988751;28;20324;-69
2022/06/20 12:25:26;;;;;;;9.07;2.08;;;;;;;;;;4987365;28;20348;-70
2022/06/20 12:27:52;;;;;;;4.27;1.93;;;;;;;;;;4988132;28;20028;-69
2022/06/20 12:30:18;;;;;;;15.15;2.50;;;;;;;;;;4986954;28;20025;-70
2022/06/20 12:32:50;;;;;;;2.90;2.08;;;;;;;;;;4989394;28;20416;-70
2022/06/20 12:35:28;;;;;;;22.25;3.08;;;;;;;;;;4987526;28;20083;-70
2022/06/20 12:37:59;;;;;;;5.57;2.22;;;;;;;;;;4988843;28;20033;-70
2022/06/20 12:40:47;;;;;;;8.82;2.00;;;;;;;;;;4970718;28;20048;-69
2022/06/20 12:43:16;;;;;;;7.20;2.03;;;;;;;;;;4987946;28;20476;-70
2022/06/20 12:46:01;;;;;;;9.02;1.83;;;;;;;;;;4986971;28;20041;-70
2022/06/20 12:48:33;;;;;;;3.55;1.73;;;;;;;;;;4988478;28;20337;-70
2022/06/20 12:51:37;;;;;;;7.00;1.90;;;;;;;;;;4987680;28;20406;-70
2022/06/20 12:54:08;;;;;;;11.73;1.98;;;;;;;;;;4988595;28;20332;-70
2022/06/20 12:56:40;;;;;;;3.50;1.63;;;;;;;;;;4988405;28;20442;-70
2022/06/20 12:59:27;;;;;;;4.20;2.03;;;;;;;;;;4988623;28;20370;-70
2022/06/20 13:01:59;;;;;;;3.83;2.00;;;;;;;;;;4988248;28;20041;-70
2022/06/20 13:04:28;;;;;;;4.85;2.20;;;;;;;;;;4970318;28;20448;-70
2022/06/20 13:06:56;;;;;;;4.90;1.58;;;;;;;;;;4988045;28;20427;-70
2022/06/20 13:09:31;;;;;;;3.42;1.48;;;;;;;;;;4987845;28;20470;-70
2022/06/20 13:11:59;;;;;;;5.47;1.75;;;;;;;;;;4990904;28;20444;-70
2022/06/20 13:14:43;;;;;;;6.68;1.80;;;;;;;;;;4992258;28;20371;-69
2022/06/20 13:17:40;;;;;;;2.10;1.15;;;;;;;;;;4992070;28;20439;-70
2022/06/20 13:20:44;;;;;;;4.43;1.67;;;;;;;;;;4991390;28;20332;-69
2022/06/20 13:23:35;;;;;;;2.17;1.58;;;;;;;;;;4992100;28;20059;-70
2022/06/20 13:26:13;;;;;;;2.05;1.25;;;;;;;;;;4989853;28;20434;-70
2022/06/20 13:28:50;;;;;;;4.28;1.45;;;;;;;;;;4992028;28;20361;-69
2022/06/20 13:31:23;;;;;;;6.32;1.55;;;;;;;;;;4991212;28;20563;-70
2022/06/20 13:34:12;;;;;;;4.20;1.55;;;;;;;;;;4990095;28;20501;-70
2022/06/20 13:36:43;;;;;;;2.45;1.40;;;;;;;;;;4991555;28;20462;-70
2022/06/20 13:39:16;;;;;;;1.58;1.38;;;;;;;;;;4991814;28;20052;-69
2022/06/20 13:41:51;;;;;;;3.60;1.50;;;;;;;;;;4991733;28;20436;-70
2022/06/20 13:44:29;;;;;;;2.33;1.27;;;;;;;;;;4990109;28;20429;-70
2022/06/20 13:47:17;;;;;;;2.45;1.20;;;;;;;;;;4991186;28;20512;-70
2022/06/20 13:49:58;;;;;;;5.57;1.70;;;;;;;;;;4989763;28;20354;-71
2022/06/20 13:52:43;;;;;;;2.95;1.30;;;;;;;;;;4991406;28;20451;-70
2022/06/20 13:55:35;;;;;;;2.33;1.20;;;;;;;;;;4989923;28;20426;-70
2022/06/20 13:58:14;;;;;;;3.25;1.58;;;;;;;;;;4990114;28;20497;-70
2022/06/20 14:00:41;;;;;;;4.03;1.40;;;;;;;;;;4989276;28;20021;-70
2022/06/20 14:03:22;;;;;;;1.80;1.45;;;;;;;;;;4989775;28;20420;-70
2022/06/20 14:05:48;;;;;;;3.85;1.45;;;;;;;;;;4991583;28;20333;-71
2022/06/20 14:08:27;;;;;;;2.38;1.48;;;;;;;;;;4992079;28;20519;-69
2022/06/20 14:10:55;;;;;;;1.55;1.20;;;;;;;;;;4992130;28;20447;-70
2022/06/20 14:13:31;;;;;;;4.35;1.65;;;;;;;;;;4989469;28;20328;-71
2022/06/20 14:16:15;;;;;;;3.25;1.48;;;;;;;;;;4989681;28;20415;-73
2022/06/20 14:18:50;;;;;;;4.10;1.88;;;;;;;;;;4992281;28;20317;-72
2022/06/20 14:21:15;;;;;;;1.40;1.30;;;;;;;;;;4989669;28;20339;-71
2022/06/20 14:23:47;;;;;;;2.45;1.40;;;;;;;;;;4990319;28;20364;-72
2022/06/20 14:26:34;;;;;;;3.47;1.70;;;;;;;;;;4988908;28;20355;-72
2022/06/20 14:29:02;;;;;;;3.53;1.42;;;;;;;;;;4989571;28;20427;-72
2022/06/20 14:31:32;;;;;;;;;;;;;;;;;;5006043;28;20348;-71
2022/06/20 14:34:02;;;;;;;8.38;1.30;;;;;;;;;;4989437;28;19963;-72
2022/06/20 14:36:53;;;;;;;3.22;1.50;;;;;;;;;;4989076;28;20428;-72
2022/06/20 14:39:29;;;;;;;2.70;1.65;;;;;;;;;;4990089;28;20343;-72
2022/06/20 14:42:03;;;;;;;2.55;1.10;;;;;;;;;;4972739;28;20465;-73
2022/06/20 14:44:29;;;;;;;4.32;1.65;;;;;;;;;;4988720;28;20048;-73
2022/06/20 14:47:14;;;;;;;3.80;1.58;;;;;;;;;;4989124;28;20344;-71
2022/06/20 14:49:46;;;;;;;3.83;1.40;;;;;;;;;;4990977;28;20390;-71
2022/06/20 14:52:14;;;;;;;5.03;1.40;;;;;;;;;;4989396;28;20451;-72
2022/06/20 14:54:46;;;;;;;3.85;2.00;;;;;;;;;;4990665;28;20398;-73
2022/06/20 14:57:20;;;;;;;5.03;2.15;;;;;;;;;;4990067;28;20647;-74
2022/06/20 14:59:55;;;;;;;2.72;1.40;;;;;;;;;;4988701;28;20351;-73
2022/06/20 15:02:29;;;;;;;5.38;1.85;;;;;;;;;;4988956;28;20487;-72
2022/06/20 15:04:55;;;;;;;2.50;1.40;;;;;;;;;;4989094;28;20416;-71
2022/06/20 15:07:29;;;;;;;3.28;1.45;;;;;;;;;;4988547;28;20428;-71
2022/06/20 15:10:22;;;;;;;5.80;1.85;;;;;;;;;;4989834;28;20471;-71
2022/06/20 15:12:53;;;;;;;5.50;1.45;;;;;;;;;;4988472;28;20474;-71
2022/06/20 15:15:45;;;;;;;7.05;1.80;;;;;;;;;;4988524;28;20420;-71
2022/06/20 15:18:23;;;;;;;2.72;1.35;;;;;;;;;;4985799;28;20485;-71
2022/06/20 15:21:06;;;;;;;1.88;1.40;;;;;;;;;;4991927;28;20032;-71
2022/06/20 15:23:31;;;;;;;7.40;1.58;;;;;;;;;;4988123;28;20515;-71
2022/06/20 15:26:05;;;;;;;7.05;2.13;;;;;;;;;;4989168;28;20475;-71
2022/06/20 15:28:39;;;;;;;1.67;1.17;;;;;;;;;;4989051;28;20499;-70
2022/06/20 15:31:08;;;;;;;2.63;1.70;;;;;;;;;;4989403;28;20367;-71
2022/06/20 15:33:37;;;;;;;3.30;1.50;;;;;;;;;;4987789;28;20531;-70
2022/06/20 15:36:23;;;;;;;3.47;1.80;;;;;;;;;;4989399;28;20547;-71
2022/06/20 15:38:53;;;;;;;8.43;2.03;;;;;;;;;;4987783;28;20443;-72
2022/06/20 15:41:21;;;;;;;4.32;1.95;;;;;;;;;;4989593;28;20075;-72
2022/06/20 15:43:55;;;;;;;4.38;1.98;;;;;;;;;;4989735;28;20039;-70
2022/06/20 15:46:27;;;;;;;10.32;2.17;;;;;;;;;;4989557;28;20455;-71
2022/06/20 15:48:58;;;;;;;3.72;2.03;;;;;;;;;;4989530;28;20379;-72
2022/06/20 15:52:11;;;;;;;6.20;1.95;;;;;;;;;;4987661;28;20366;-71
2022/06/20 15:54:55;;;;;;;6.50;1.98;;;;;;;;;;4947497;28;20423;-71